sensor_id;sensor_type;location;lat;lon;timestamp;pressure;altitude;pressure_sealevel;temperature;humidity
22862;BME280;11598;50.652;6.172;2022-08-30T00:01:34;96822.88;;;13.80;62.92
22862;BME280;11598;50.652;6.172;2022-08-30T00:11:35;96823.75;;;13.69;63.94
22862;BME280;11598;50.652;6.172;2022-08-30T00:21:35;96818.47;;;13.60;64.47
22862;BME280;11598;50.652;6.172;2022-08-30T00:31:38;96822.72;;;13.61;64.89
22862;BME280;11598;50.652;6.172;2022-08-30T00:41:39;96822.44;;;13.43;66.00
22862;BME280;11598;50.652;6.172;2022-08-30T00:51:40;96816.53;;;13.29;66.70
22862;BME280;11598;50.652;6.172;2022-08-30T01:01:41;96815.72;;;13.29;67.21
22862;BME280;11598;50.652;6.172;2022-08-30T01:11:43;96823.72;;;13.26;67.33
22862;BME280;11598;50.652;6.172;2022-08-30T01:21:47;96814.97;;;13.16;68.21
22862;BME280;11598;50.652;6.172;2022-08-30T01:31:49;96808.78;;;13.17;68.17
22862;BME280;11598;50.652;6.172;2022-08-30T01:41:49;96813.66;;;13.32;67.95
22862;BME280;11598;50.652;6.172;2022-08-30T01:51:50;96816.81;;;13.47;67.77
22862;BME280;11598;50.652;6.172;2022-08-30T02:01:50;96815.38;;;13.87;66.49
22862;BME280;11598;50.652;6.172;2022-08-30T02:11:50;96807.22;;;14.43;64.73
22862;BME280;11598;50.652;6.172;2022-08-30T02:21:51;96798.84;;;14.70;63.37
22862;BME280;11598;50.652;6.172;2022-08-30T02:31:51;96790.09;;;14.91;62.43
22862;BME280;11598;50.652;6.172;2022-08-30T02:41:51;96788.06;;;14.94;62.15
22862;BME280;11598;50.652;6.172;2022-08-30T02:51:52;96784.34;;;14.97;61.46
22862;BME280;11598;50.652;6.172;2022-08-30T03:01:52;96775.41;;;14.99;61.01
22862;BME280;11598;50.652;6.172;2022-08-30T03:11:52;96768.66;;;14.97;60.85
22862;BME280;11598;50.652;6.172;2022-08-30T03:21:53;96768.25;;;15.01;60.30
22862;BME280;11598;50.652;6.172;2022-08-30T03:31:53;96758.06;;;15.08;59.47
22862;BME280;11598;50.652;6.172;2022-08-30T03:41:53;96749.41;;;15.17;59.70
22862;BME280;11598;50.652;6.172;2022-08-30T03:51:54;96757.16;;;15.38;58.81
22862;BME280;11598;50.652;6.172;2022-08-30T04:01:54;96760.59;;;15.39;59.50
22862;BME280;11598;50.652;6.172;2022-08-30T04:11:54;96750.69;;;15.52;58.63
22862;BME280;11598;50.652;6.172;2022-08-30T04:21:55;96749.72;;;15.53;58.30
22862;BME280;11598;50.652;6.172;2022-08-30T04:31:56;96767.75;;;15.56;58.81
22862;BME280;11598;50.652;6.172;2022-08-30T04:41:56;96766.25;;;15.44;58.45
22862;BME280;11598;50.652;6.172;2022-08-30T04:51:57;96782.13;;;15.62;57.70
22862;BME280;11598;50.652;6.172;2022-08-30T05:01:58;96784.34;;;15.86;56.93
22862;BME280;11598;50.652;6.172;2022-08-30T05:11:58;96794.25;;;16.12;56.54
22862;BME280;11598;50.652;6.172;2022-08-30T05:21:59;96793.25;;;16.22;55.76
22862;BME280;11598;50.652;6.172;2022-08-30T05:31:59;96800.13;;;16.33;55.46
22862;BME280;11598;50.652;6.172;2022-08-30T05:41:59;96806.00;;;16.55;54.74
22862;BME280;11598;50.652;6.172;2022-08-30T05:52:00;96818.09;;;16.75;54.17
22862;BME280;11598;50.652;6.172;2022-08-30T06:02:00;96805.34;;;16.90;53.79
22862;BME280;11598;50.652;6.172;2022-08-30T06:12:01;96810.66;;;17.08;52.74
22862;BME280;11598;50.652;6.172;2022-08-30T06:22:01;96809.00;;;17.07;52.90
22862;BME280;11598;50.652;6.172;2022-08-30T06:32:02;96807.97;;;16.90;53.83
22862;BME280;11598;50.652;6.172;2022-08-30T06:42:02;96800.78;;;16.92;54.80
22862;BME280;11598;50.652;6.172;2022-08-30T06:52:03;96802.94;;;17.52;55.29
22862;BME280;11598;50.652;6.172;2022-08-30T07:02:04;96808.75;;;17.91;54.75
22862;BME280;11598;50.652;6.172;2022-08-30T07:12:05;96810.34;;;18.54;52.56
22862;BME280;11598;50.652;6.172;2022-08-30T07:22:05;96819.25;;;18.79;52.04
22862;BME280;11598;50.652;6.172;2022-08-30T07:32:06;96821.03;;;19.64;50.96
22862;BME280;11598;50.652;6.172;2022-08-30T07:42:07;96818.28;;;21.51;46.03
22862;BME280;11598;50.652;6.172;2022-08-30T07:52:07;96811.19;;;22.44;43.69
22862;BME280;11598;50.652;6.172;2022-08-30T08:02:08;96827.00;;;22.67;42.67
22862;BME280;11598;50.652;6.172;2022-08-30T08:12:08;96835.50;;;22.62;42.55
22862;BME280;11598;50.652;6.172;2022-08-30T08:22:08;96837.16;;;22.02;43.29
22862;BME280;11598;50.652;6.172;2022-08-30T08:32:09;96835.25;;;21.88;43.48
22862;BME280;11598;50.652;6.172;2022-08-30T08:52:33;96837.53;;;21.68;43.30
22862;BME280;11598;50.652;6.172;2022-08-30T09:02:59;96833.25;;;21.67;42.91
22862;BME280;11598;50.652;6.172;2022-08-30T09:13:00;96837.84;;;21.96;42.35
22862;BME280;11598;50.652;6.172;2022-08-30T09:33:19;96841.31;;;22.43;42.97
22862;BME280;11598;50.652;6.172;2022-08-30T09:43:29;96850.59;;;22.91;41.22
22862;BME280;11598;50.652;6.172;2022-08-30T09:53:33;96844.28;;;22.77;40.39
22862;BME280;11598;50.652;6.172;2022-08-30T10:03:40;96837.19;;;22.40;41.73
22862;BME280;11598;50.652;6.172;2022-08-30T10:24:05;96833.03;;;22.61;40.99
22862;BME280;11598;50.652;6.172;2022-08-30T10:34:15;96828.94;;;22.88;40.51
22862;BME280;11598;50.652;6.172;2022-08-30T10:44:33;96834.63;;;22.99;40.06
22862;BME280;11598;50.652;6.172;2022-08-30T10:54:56;96827.66;;;22.69;40.95
22862;BME280;11598;50.652;6.172;2022-08-30T11:15:23;96825.69;;;23.00;40.81
22862;BME280;11598;50.652;6.172;2022-08-30T11:25:48;96815.69;;;23.32;40.32
22862;BME280;11598;50.652;6.172;2022-08-30T11:35:51;96818.25;;;23.40;40.07
22862;BME280;11598;50.652;6.172;2022-08-30T12:16:44;96794.91;;;23.87;39.64
22862;BME280;11598;50.652;6.172;2022-08-30T12:27:22;96802.81;;;23.80;39.91
22862;BME280;11598;50.652;6.172;2022-08-30T12:37:28;96778.91;;;23.80;39.48
22862;BME280;11598;50.652;6.172;2022-08-30T12:47:40;96775.50;;;23.87;39.72
22862;BME280;11598;50.652;6.172;2022-08-30T12:58:00;96756.47;;;24.04;39.26
22862;BME280;11598;50.652;6.172;2022-08-30T13:18:25;96763.78;;;24.02;38.54
22862;BME280;11598;50.652;6.172;2022-08-30T13:28:55;96748.31;;;23.84;38.50
22862;BME280;11598;50.652;6.172;2022-08-30T13:38:58;96728.88;;;23.99;38.03
22862;BME280;11598;50.652;6.172;2022-08-30T13:49:04;96733.41;;;24.05;38.29
22862;BME280;11598;50.652;6.172;2022-08-30T13:59:04;96736.09;;;24.40;37.79
22862;BME280;11598;50.652;6.172;2022-08-30T14:09:05;96726.25;;;24.34;37.43
22862;BME280;11598;50.652;6.172;2022-08-30T14:19:06;96742.13;;;24.49;37.13
22862;BME280;11598;50.652;6.172;2022-08-30T14:29:09;96728.38;;;24.45;37.61
22862;BME280;11598;50.652;6.172;2022-08-30T14:39:13;96716.06;;;24.37;38.38
22862;BME280;11598;50.652;6.172;2022-08-30T14:49:15;96725.38;;;24.55;37.88
22862;BME280;11598;50.652;6.172;2022-08-30T14:59:16;96709.03;;;24.23;38.60
22862;BME280;11598;50.652;6.172;2022-08-30T15:09:20;96701.66;;;24.18;39.23
22862;BME280;11598;50.652;6.172;2022-08-30T15:19:21;96690.28;;;24.03;40.50
22862;BME280;11598;50.652;6.172;2022-08-30T15:29:21;96683.69;;;23.92;41.27
22862;BME280;11598;50.652;6.172;2022-08-30T15:39:23;96673.84;;;23.86;42.46
22862;BME280;11598;50.652;6.172;2022-08-30T15:49:24;96677.66;;;23.77;42.94
22862;BME280;11598;50.652;6.172;2022-08-30T15:59:25;96682.56;;;23.58;44.14
22862;BME280;11598;50.652;6.172;2022-08-30T16:09:27;96686.66;;;23.39;44.31
22862;BME280;11598;50.652;6.172;2022-08-30T16:19:27;96681.25;;;23.26;45.21
22862;BME280;11598;50.652;6.172;2022-08-30T16:29:28;96681.50;;;23.10;45.67
22862;BME280;11598;50.652;6.172;2022-08-30T16:39:28;96684.16;;;22.80;46.17
22862;BME280;11598;50.652;6.172;2022-08-30T16:49:29;96679.06;;;22.64;46.86
22862;BME280;11598;50.652;6.172;2022-08-30T16:59:29;96677.91;;;22.51;47.31
22862;BME280;11598;50.652;6.172;2022-08-30T17:09:30;96684.66;;;22.39;48.07
22862;BME280;11598;50.652;6.172;2022-08-30T17:19:30;96692.25;;;22.27;48.87
22862;BME280;11598;50.652;6.172;2022-08-30T17:29:31;96694.00;;;22.12;49.21
22862;BME280;11598;50.652;6.172;2022-08-30T17:39:31;96697.88;;;21.86;50.12
22862;BME280;11598;50.652;6.172;2022-08-30T17:49:32;96705.22;;;21.61;50.49
22862;BME280;11598;50.652;6.172;2022-08-30T17:59:33;96717.75;;;21.36;51.08
22862;BME280;11598;50.652;6.172;2022-08-30T18:09:34;96726.81;;;21.10;51.96
22862;BME280;11598;50.652;6.172;2022-08-30T18:19:34;96732.88;;;20.88;52.33
22862;BME280;11598;50.652;6.172;2022-08-30T18:29:36;96738.72;;;20.67;52.58
22862;BME280;11598;50.652;6.172;2022-08-30T18:39:37;96751.31;;;20.48;52.87
22862;BME280;11598;50.652;6.172;2022-08-30T18:49:38;96759.25;;;20.32;53.54
22862;BME280;11598;50.652;6.172;2022-08-30T18:59:39;96752.34;;;20.15;53.79
22862;BME280;11598;50.652;6.172;2022-08-30T19:09:39;96765.88;;;19.95;54.55
22862;BME280;11598;50.652;6.172;2022-08-30T19:19:40;96770.66;;;19.83;54.82
22862;BME280;11598;50.652;6.172;2022-08-30T19:29:41;96783.19;;;19.73;54.94
22862;BME280;11598;50.652;6.172;2022-08-30T19:39:41;96779.34;;;19.59;55.79
22862;BME280;11598;50.652;6.172;2022-08-30T19:49:42;96775.53;;;19.46;56.15
22862;BME280;11598;50.652;6.172;2022-08-30T19:59:42;96782.25;;;19.32;56.65
22862;BME280;11598;50.652;6.172;2022-08-30T20:09:42;96783.34;;;19.13;57.67
22862;BME280;11598;50.652;6.172;2022-08-30T20:19:43;96796.41;;;18.88;58.86
22862;BME280;11598;50.652;6.172;2022-08-30T20:29:45;96793.97;;;18.61;60.32
22862;BME280;11598;50.652;6.172;2022-08-30T20:39:45;96798.59;;;18.41;60.84
22862;BME280;11598;50.652;6.172;2022-08-30T20:49:46;96795.59;;;18.35;61.22
22862;BME280;11598;50.652;6.172;2022-08-30T20:59:47;96798.19;;;18.27;61.03
22862;BME280;11598;50.652;6.172;2022-08-30T21:09:47;96795.13;;;18.14;62.20
22862;BME280;11598;50.652;6.172;2022-08-30T21:19:47;96787.94;;;17.98;63.20
22862;BME280;11598;50.652;6.172;2022-08-30T21:29:48;96796.69;;;17.81;63.98
22862;BME280;11598;50.652;6.172;2022-08-30T21:39:49;96803.75;;;17.70;64.17
22862;BME280;11598;50.652;6.172;2022-08-30T21:49:49;96807.25;;;17.71;63.22
22862;BME280;11598;50.652;6.172;2022-08-30T21:59:49;96808.19;;;17.70;63.16
22862;BME280;11598;50.652;6.172;2022-08-30T22:09:50;96804.97;;;17.58;63.75
22862;BME280;11598;50.652;6.172;2022-08-30T22:19:50;96797.38;;;17.37;64.50
22862;BME280;11598;50.652;6.172;2022-08-30T22:29:50;96788.34;;;17.22;65.76
22862;BME280;11598;50.652;6.172;2022-08-30T22:39:51;96792.63;;;16.95;67.23
22862;BME280;11598;50.652;6.172;2022-08-30T22:49:51;96786.78;;;16.64;68.93
22862;BME280;11598;50.652;6.172;2022-08-30T22:59:51;96787.13;;;16.41;70.16
22862;BME280;11598;50.652;6.172;2022-08-30T23:09:52;96786.88;;;16.25;70.83
22862;BME280;11598;50.652;6.172;2022-08-30T23:19:52;96783.19;;;16.08;71.91
22862;BME280;11598;50.652;6.172;2022-08-30T23:29:58;96783.34;;;15.87;73.20
22862;BME280;11598;50.652;6.172;2022-08-30T23:40:16;96795.50;;;15.69;74.86
22862;BME280;11598;50.652;6.172;2022-08-30T23:50:35;96802.09;;;15.63;74.94
